Time;durP1;ratioP1;P1;durP2;ratioP2;P2;SDS_P1;SDS_P2;PMS_P1;PMS_P2;Temp;Humidity;BMP_temperature;BMP_pressure;BME280_temperature;BME280_humidity;BME280_pressure;Samples;Min_cycle;Max_cycle;Signal;HPM_P1;HPM_P2
2022/11/12 00:00:30;;;;;;;;;;;13.80;99.90;;;;;;5073861;28;19909;-71
2022/11/12 00:03:35;;;;;;;;;;;13.70;99.90;;;;;;5066214;28;19909;-72
2022/11/12 00:08:50;;;;;;;;;;;13.50;99.90;;;;;;5017810;28;19976;-73
2022/11/12 00:11:15;;;;;;;;;;;13.40;99.90;;;;;;5055796;28;19966;-73
2022/11/12 00:13:41;;;;;;;;;;;13.40;99.90;;;;;;5046947;28;19909;-73
2022/11/12 00:16:07;;;;;;;;;;;13.30;99.90;;;;;;5072402;28;19919;-72
2022/11/12 00:18:32;;;;;;;;;;;13.20;99.90;;;;;;5074173;28;19909;-73
2022/11/12 00:20:58;;;;;;;;;;;13.20;99.90;;;;;;5074086;28;19908;-72
2022/11/12 00:23:24;;;;;;;;;;;13.10;99.90;;;;;;5054716;28;20043;-72
2022/11/12 00:25:57;;;;;;;;;;;13.10;99.90;;;;;;5073058;28;19920;-72
2022/11/12 00:28:22;;;;;;;;;;;13.10;99.90;;;;;;5073623;28;19962;-72
2022/11/12 00:30:48;;;;;;;;;;;13.10;99.90;;;;;;5055937;28;19917;-72
2022/11/12 00:33:13;;;;;;;;;;;13.20;99.90;;;;;;5057424;28;19955;-74
2022/11/12 00:35:39;;;;;;;;;;;13.20;99.90;;;;;;5072651;28;19915;-72
2022/11/12 00:38:05;;;;;;;;;;;13.10;99.90;;;;;;5072535;28;20347;-73
2022/11/12 00:40:31;;;;;;;;;;;13.10;99.90;;;;;;5077365;28;19908;-72
2022/11/12 00:42:57;;;;;;;;;;;13.10;99.90;;;;;;5060216;28;19927;-72
2022/11/12 00:45:22;;;;;;;;;;;13.30;99.90;;;;;;5081970;28;19912;-72
2022/11/12 00:47:48;;;;;;;;;;;13.30;99.90;;;;;;5077323;28;19912;-73
2022/11/12 00:50:15;;;;;;;;;;;13.30;99.90;;;;;;5092213;28;19908;-73
2022/11/12 00:52:40;;;;;;;;;;;13.50;99.90;;;;;;5072568;28;19944;-73
2022/11/12 00:55:06;;;;;;;;;;;13.50;99.90;;;;;;5072614;28;19955;-73
2022/11/12 00:57:32;;;;;;;;;;;13.60;99.90;;;;;;5050434;28;19909;-72
2022/11/12 00:59:58;;;;;;;;;;;13.60;99.90;;;;;;5051364;28;20433;-73
2022/11/12 01:02:23;;;;;;;;;;;13.70;99.90;;;;;;5052394;28;19931;-72
2022/11/12 01:04:49;;;;;;;;;;;13.80;99.90;;;;;;5056430;28;19913;-76
2022/11/12 01:07:15;;;;;;;;;;;13.70;99.90;;;;;;5051863;28;20111;-72
2022/11/12 01:09:41;;;;;;;;;;;13.80;99.90;;;;;;5054410;28;19917;-73
2022/11/12 01:12:07;;;;;;;;;;;13.80;99.90;;;;;;5085413;28;19952;-72
2022/11/12 01:14:33;;;;;;;;;;;13.80;99.90;;;;;;5071555;28;19909;-72
2022/11/12 01:16:58;;;;;;;;;;;13.70;99.90;;;;;;5072788;28;19916;-72
2022/11/12 01:19:24;;;;;;;;;;;13.70;99.90;;;;;;5072229;28;19912;-73
2022/11/12 01:21:50;;;;;;;;;;;13.90;99.90;;;;;;5036883;28;20059;-71
2022/11/12 01:24:15;;;;;;;;;;;13.80;99.90;;;;;;5052254;28;19913;-71
2022/11/12 01:26:41;;;;;;;;;;;13.90;99.90;;;;;;5054636;28;19909;-72
2022/11/12 01:29:07;;;;;;;;;;;13.90;99.90;;;;;;4974915;28;2289492;-72
2022/11/12 01:31:34;;;;;;;;;;;13.90;99.90;;;;;;5076330;28;19916;-73
2022/11/12 01:34:00;;;;;;;;;;;14.00;99.90;;;;;;5085345;28;19977;-74
2022/11/12 01:36:27;;;;;;;;;;;14.00;99.90;;;;;;5078296;28;20009;-72
2022/11/12 01:38:53;;;;;;;;;;;13.90;99.90;;;;;;5061051;28;19919;-72
2022/11/12 01:41:20;;;;;;;;;;;13.90;99.90;;;;;;5056795;28;19909;-74
2022/11/12 01:43:46;;;;;;;;;;;13.90;99.90;;;;;;5073318;28;19916;-74
2022/11/12 01:46:32;;;;;;;;;;;13.80;99.90;;;;;;5079555;28;19919;-72
2022/11/12 01:49:00;;;;;;;;;;;13.90;99.90;;;;;;5058462;28;19908;-72
2022/11/12 01:51:28;;;;;;;;;;;14.00;99.90;;;;;;5070922;28;19939;-73
2022/11/12 01:53:56;;;;;;;;;;;14.00;99.90;;;;;;5087203;28;19919;-73
2022/11/12 01:56:22;;;;;;;;;;;14.00;99.90;;;;;;5056133;28;19909;-73
2022/11/12 01:58:49;;;;;;;;;;;13.90;99.90;;;;;;5076081;28;19916;-72
2022/11/12 02:01:15;;;;;;;;;;;13.90;99.90;;;;;;5076255;28;19916;-73
2022/11/12 02:03:41;;;;;;;;;;;13.90;99.90;;;;;;5075566;28;19912;-72
2022/11/12 02:06:12;;;;;;;;;;;13.80;99.90;;;;;;5058184;28;20366;-72
2022/11/12 02:08:38;;;;;;;;;;;13.60;99.90;;;;;;5073480;28;19909;-72
2022/11/12 02:11:11;;;;;;;;;;;13.70;99.90;;;;;;5057405;28;19919;-72
2022/11/12 02:16:21;;;;;;;;;;;13.70;99.90;;;;;;5075114;28;19919;-72
2022/11/12 02:18:47;;;;;;;;;;;13.80;99.90;;;;;;5076164;28;19908;-72
2022/11/12 02:21:13;;;;;;;;;;;13.80;99.90;;;;;;5057270;28;19909;-72
2022/11/12 02:23:38;;;;;;;;;;;13.70;99.90;;;;;;5075297;28;19990;-72
2022/11/12 02:26:04;;;;;;;;;;;13.50;99.90;;;;;;5075484;28;19909;-72
2022/11/12 02:28:31;;;;;;;;;;;13.50;99.90;;;;;;5072940;28;19912;-72
2022/11/12 02:30:57;;;;;;;;;;;13.40;99.90;;;;;;5074274;28;19936;-72
2022/11/12 02:33:22;;;;;;;;;;;13.30;99.90;;;;;;5075371;28;20282;-72
2022/11/12 02:35:48;;;;;;;;;;;13.40;99.90;;;;;;5075399;28;19908;-73
2022/11/12 02:38:14;;;;;;;;;;;13.70;99.90;;;;;;5056609;28;19916;-71
2022/11/12 02:40:39;;;;;;;;;;;13.70;99.90;;;;;;5075202;28;19908;-72
2022/11/12 02:43:05;;;;;;;;;;;13.80;99.90;;;;;;5074633;28;20331;-71
2022/11/12 02:45:31;;;;;;;;;;;13.80;99.90;;;;;;5054253;28;19916;-72
2022/11/12 02:47:57;;;;;;;;;;;13.70;99.90;;;;;;5073643;28;19950;-72
2022/11/12 02:50:23;;;;;;;;;;;13.60;99.90;;;;;;5075608;28;19999;-73
2022/11/12 02:52:48;;;;;;;;;;;13.50;99.90;;;;;;5075496;28;19908;-72
2022/11/12 02:55:14;;;;;;;;;;;13.40;99.90;;;;;;5074374;28;19908;-72
2022/11/12 02:57:40;;;;;;;;;;;13.30;99.90;;;;;;5084313;28;19908;-73
2022/11/12 03:00:09;;;;;;;;;;;13.30;99.90;;;;;;5083337;28;19916;-74
2022/11/12 03:02:41;;;;;;;;;;;13.30;99.90;;;;;;5072982;28;19948;-73
2022/11/12 03:05:08;;;;;;;;;;;13.40;99.90;;;;;;5074759;28;19971;-71
2022/11/12 03:07:34;;;;;;;;;;;13.40;99.90;;;;;;5073634;28;19912;-71
2022/11/12 03:09:59;;;;;;;;;;;13.30;99.90;;;;;;5085876;28;19974;-72
2022/11/12 03:12:25;;;;;;;;;;;13.40;99.90;;;;;;5054958;28;19916;-71
2022/11/12 03:14:51;;;;;;;;;;;13.40;99.90;;;;;;5061765;28;19913;-71
2022/11/12 03:17:17;;;;;;;;;;;13.40;99.90;;;;;;5073255;28;19913;-72
2022/11/12 03:19:42;;;;;;;;;;;13.30;99.90;;;;;;5077062;28;19909;-72
2022/11/12 03:22:08;;;;;;;;;;;13.40;99.90;;;;;;5062199;28;19971;-72
2022/11/12 03:24:34;;;;;;;;;;;13.50;99.90;;;;;;5080942;28;19958;-72
2022/11/12 03:26:59;;;;;;;;;;;13.40;99.90;;;;;;5075228;28;20362;-72
2022/11/12 03:29:25;;;;;;;;;;;13.30;99.90;;;;;;5076811;28;20456;-72
2022/11/12 03:31:51;;;;;;;;;;;13.40;99.90;;;;;;5079615;28;20015;-71
2022/11/12 03:34:17;;;;;;;;;;;13.40;99.90;;;;;;5063452;28;20111;-71
2022/11/12 03:36:42;;;;;;;;;;;13.50;99.90;;;;;;5070361;28;19939;-71
2022/11/12 03:39:08;;;;;;;;;;;13.50;99.90;;;;;;5084390;28;19912;-72
2022/11/12 03:41:34;;;;;;;;;;;13.60;99.90;;;;;;5073566;28;19912;-71
2022/11/12 03:44:00;;;;;;;;;;;13.60;99.90;;;;;;5075733;28;19912;-71
2022/11/12 03:46:31;;;;;;;;;;;13.60;99.90;;;;;;5073072;28;20293;-72
2022/11/12 03:48:58;;;;;;;;;;;13.50;99.90;;;;;;5081686;28;19908;-71
2022/11/12 03:51:24;;;;;;;;;;;13.50;99.90;;;;;;5074689;28;19916;-71
2022/11/12 03:53:50;;;;;;;;;;;13.30;99.90;;;;;;5066157;28;19909;-71
2022/11/12 03:56:15;;;;;;;;;;;13.10;99.90;;;;;;5053858;28;19920;-72
2022/11/12 03:58:41;;;;;;;;;;;13.10;99.90;;;;;;5052331;28;19909;-72
2022/11/12 04:01:07;;;;;;;;;;;13.10;99.90;;;;;;5085500;28;19912;-72
2022/11/12 04:03:32;;;;;;;;;;;13.20;99.90;;;;;;5081895;28;19919;-72
2022/11/12 04:08:42;;;;;;;;;;;13.20;99.90;;;;;;5074105;28;19916;-72
2022/11/12 04:11:11;;;;;;;;;;;13.20;99.90;;;;;;5075868;28;19909;-71
2022/11/12 04:13:37;;;;;;;;;;;13.20;99.90;;;;;;5081732;28;19912;-71
2022/11/12 04:21:55;;;;;;;;;;;13.10;99.90;;;;;;5073321;28;20278;-72
2022/11/12 04:27:14;;;;;;;;;;;13.10;99.90;;;;;;5075928;28;19973;-70
2022/11/12 04:32:24;;;;;;;;;;;13.00;99.90;;;;;;5083049;28;20026;-71
2022/11/12 04:34:50;;;;;;;;;;;13.00;99.90;;;;;;5079459;28;19908;-72
2022/11/12 04:37:16;;;;;;;;;;;12.90;99.90;;;;;;5068228;28;19974;-72
2022/11/12 04:39:42;;;;;;;;;;;12.80;99.90;;;;;;5078355;28;19915;-72
2022/11/12 04:45:10;;;;;;;;;;;12.80;99.90;;;;;;5078440;28;19919;-72
2022/11/12 04:47:37;;;;;;;;;;;12.80;99.90;;;;;;5068736;28;20397;-71
2022/11/12 04:50:06;;;;;;;;;;;12.80;99.90;;;;;;5061478;28;19912;-72
2022/11/12 04:52:31;;;;;;;;;;;12.80;99.90;;;;;;5072188;28;20011;-72
2022/11/12 04:54:57;;;;;;;;;;;12.90;99.90;;;;;;5077932;28;19956;-71
2022/11/12 04:57:23;;;;;;;;;;;12.90;99.90;;;;;;5081766;28;20416;-72
2022/11/12 04:59:49;;;;;;;;;;;12.80;99.90;;;;;;5072397;28;19912;-71
2022/11/12 05:02:16;;;;;;;;;;;12.80;99.90;;;;;;5076121;28;19923;-71
2022/11/12 05:04:41;;;;;;;;;;;12.70;99.90;;;;;;5077101;28;19960;-71
2022/11/12 05:07:07;;;;;;;;;;;12.70;99.90;;;;;;5080977;28;19919;-72
2022/11/12 05:09:33;;;;;;;;;;;12.60;99.90;;;;;;5073458;28;19974;-71
2022/11/12 05:11:59;;;;;;;;;;;12.70;99.90;;;;;;5059352;28;19956;-71
2022/11/12 05:14:24;;;;;;;;;;;12.80;99.90;;;;;;5079503;28;19919;-72
2022/11/12 05:16:50;;;;;;;;;;;12.80;99.90;;;;;;5082739;28;19908;-71
2022/11/12 05:19:16;;;;;;;;;;;12.90;99.90;;;;;;5083401;28;19919;-72
2022/11/12 05:24:26;;;;;;;;;;;13.10;99.90;;;;;;5073718;28;20285;-72
2022/11/12 05:26:52;;;;;;;;;;;13.10;99.90;;;;;;5084489;28;19912;-72
2022/11/12 05:29:18;;;;;;;;;;;13.20;99.90;;;;;;5059176;28;19916;-72
2022/11/12 05:31:44;;;;;;;;;;;13.30;99.90;;;;;;5074705;28;19919;-71
2022/11/12 05:34:10;;;;;;;;;;;13.30;99.90;;;;;;5078346;28;19916;-72
2022/11/12 05:36:35;;;;;;;;;;;13.20;99.90;;;;;;5078469;28;19954;-71
2022/11/12 05:39:01;;;;;;;;;;;13.10;99.90;;;;;;5086987;28;19917;-71
2022/11/12 05:41:27;;;;;;;;;;;13.00;99.90;;;;;;5070581;28;19959;-72
2022/11/12 05:43:53;;;;;;;;;;;12.90;99.90;;;;;;5081516;28;19943;-71
2022/11/12 05:46:18;;;;;;;;;;;12.90;99.90;;;;;;5088390;28;19915;-71
2022/11/12 05:48:44;;;;;;;;;;;12.90;99.90;;;;;;5064740;28;20007;-71
2022/11/12 05:51:12;;;;;;;;;;;12.90;99.90;;;;;;5058309;28;19958;-71
2022/11/12 05:53:38;;;;;;;;;;;12.80;99.90;;;;;;5060842;28;20367;-71
2022/11/12 05:56:04;;;;;;;;;;;12.80;99.90;;;;;;5054636;28;20437;-71
2022/11/12 05:58:31;;;;;;;;;;;12.80;99.90;;;;;;5055402;28;19909;-71
2022/11/12 06:00:57;;;;;;;;;;;12.80;99.90;;;;;;5061120;28;19909;-72
2022/11/12 06:03:23;;;;;;;;;;;12.90;99.90;;;;;;5076658;28;19909;-72
2022/11/12 06:05:49;;;;;;;;;;;13.00;99.90;;;;;;5058064;28;19909;-72
2022/11/12 06:08:14;;;;;;;;;;;13.10;99.90;;;;;;5076192;28;19909;-73
2022/11/12 06:10:40;;;;;;;;;;;13.10;99.90;;;;;;5043333;28;20346;-71
2022/11/12 06:13:06;;;;;;;;;;;13.10;99.90;;;;;;5055615;28;19972;-71
2022/11/12 06:15:31;;;;;;;;;;;13.00;99.90;;;;;;5055913;28;20406;-74
2022/11/12 06:17:57;;;;;;;;;;;13.00;99.90;;;;;;5059014;28;20012;-71
2022/11/12 06:20:26;;;;;;;;;;;13.00;99.90;;;;;;5075519;28;19912;-72
2022/11/12 06:22:52;;;;;;;;;;;12.90;99.90;;;;;;5075114;28;20359;-71
2022/11/12 06:25:18;;;;;;;;;;;12.90;99.90;;;;;;5074543;28;19923;-72
2022/11/12 06:27:43;;;;;;;;;;;12.80;99.90;;;;;;5071710;28;19908;-71
2022/11/12 06:30:09;;;;;;;;;;;12.80;99.90;;;;;;5064951;28;20023;-72
2022/11/12 06:32:35;;;;;;;;;;;12.80;99.90;;;;;;5084579;28;20594;-73
2022/11/12 06:35:01;;;;;;;;;;;12.80;99.90;;;;;;5077948;28;19908;-72
2022/11/12 06:37:26;;;;;;;;;;;12.90;99.90;;;;;;5057635;28;19948;-72
2022/11/12 06:39:52;;;;;;;;;;;12.90;99.90;;;;;;5072489;28;19939;-72
2022/11/12 06:42:18;;;;;;;;;;;12.90;99.90;;;;;;5079437;28;19912;-72
2022/11/12 06:44:43;;;;;;;;;;;12.90;99.90;;;;;;5073032;28;19923;-72
2022/11/12 06:47:10;;;;;;;;;;;12.90;99.90;;;;;;5083838;28;20275;-72
2022/11/12 06:49:35;;;;;;;;;;;13.00;99.90;;;;;;5074953;28;19963;-71
2022/11/12 06:52:01;;;;;;;;;;;13.00;99.90;;;;;;5076415;28;19909;-71
2022/11/12 06:54:27;;;;;;;;;;;12.90;99.90;;;;;;5065700;28;20377;-71
2022/11/12 06:56:52;;;;;;;;;;;12.90;99.90;;;;;;5064753;28;19919;-72
2022/11/12 06:59:18;;;;;;;;;;;12.90;99.90;;;;;;5081127;28;20321;-72
2022/11/12 07:01:44;;;;;;;;;;;12.90;99.90;;;;;;5064395;28;19936;-71
2022/11/12 07:04:09;;;;;;;;;;;12.90;99.90;;;;;;5078525;28;19931;-71
2022/11/12 07:06:35;;;;;;;;;;;12.90;99.90;;;;;;5095297;28;19912;-72
2022/11/12 07:09:02;;;;;;;;;;;13.00;99.90;;;;;;5080563;28;20398;-72
2022/11/12 07:11:27;;;;;;;;;;;13.00;99.90;;;;;;5056344;28;20378;-72
2022/11/12 07:13:53;;;;;;;;;;;13.10;99.90;;;;;;5056700;28;19959;-72
2022/11/12 07:16:19;;;;;;;;;;;13.20;99.90;;;;;;5074337;28;19999;-72
2022/11/12 07:18:45;;;;;;;;;;;13.40;99.90;;;;;;5057567;28;20046;-70
2022/11/12 07:21:14;;;;;;;;;;;13.50;99.90;;;;;;5067421;28;19935;-70
2022/11/12 07:23:40;;;;;;;;;;;13.60;99.90;;;;;;5064160;28;19927;-70
2022/11/12 07:26:13;;;;;;;;;;;13.70;99.90;;;;;;5054207;28;19916;-73
2022/11/12 07:29:53;;;;;;;;;;;13.90;99.90;;;;;;5073096;28;19923;-70
2022/11/12 07:32:54;;;;;;;;;;;14.10;99.90;;;;;;5060982;28;19982;-70
2022/11/12 07:35:13;;;;;;;;;;;14.10;99.90;;;;;;5022046;28;19912;-71
2022/11/12 07:37:39;;;;;;;;;;;13.90;99.90;;;;;;5076470;28;19916;-71
2022/11/12 07:40:05;;;;;;;;;;;13.90;99.90;;;;;;5068300;28;19962;-70
2022/11/12 07:42:34;;;;;;;;;;;14.00;99.90;;;;;;5063656;28;19913;-70
2022/11/12 07:45:00;;;;;;;;;;;14.00;99.90;;;;;;5047414;28;19923;-72
2022/11/12 07:47:26;;;;;;;;;;;14.00;99.90;;;;;;5071254;28;19917;-71
2022/11/12 07:49:52;;;;;;;;;;;14.00;99.90;;;;;;5072336;28;20300;-71
2022/11/12 07:52:17;;;;;;;;;;;13.90;99.90;;;;;;5074082;28;19952;-71
2022/11/12 07:54:43;;;;;;;;;;;13.90;99.90;;;;;;5071929;28;19916;-70
2022/11/12 07:57:09;;;;;;;;;;;13.90;99.90;;;;;;5075637;28;19920;-70
2022/11/12 07:59:35;;;;;;;;;;;14.00;99.90;;;;;;5086628;28;19923;-70
2022/11/12 08:02:00;;;;;;;;;;;13.80;99.90;;;;;;5071098;28;19963;-70
2022/11/12 08:04:26;;;;;;;;;;;13.90;99.90;;;;;;5085600;28;19982;-70
2022/11/12 08:06:52;;;;;;;;;;;13.90;99.90;;;;;;5094051;28;19915;-70
2022/11/12 08:09:17;;;;;;;;;;;13.90;99.90;;;;;;5090732;28;20401;-70
2022/11/12 08:11:43;;;;;;;;;;;13.90;99.90;;;;;;5068182;28;19957;-71
2022/11/12 08:14:09;;;;;;;;;;;13.90;99.90;;;;;;5070009;28;19925;-70
2022/11/12 08:16:35;;;;;;;;;;;13.90;99.90;;;;;;5074356;28;20325;-71
2022/11/12 08:19:00;;;;;;;;;;;13.90;99.90;;;;;;5074265;28;19916;-71
2022/11/12 08:21:59;;;;;;;;;;;14.00;99.90;;;;;;5075310;28;19951;-70
2022/11/12 08:24:50;;;;;;;;;;;14.10;99.90;;;;;;4981905;28;19918;-70
2022/11/12 08:27:21;;;;;;;;;;;14.10;99.90;;;;;;4980794;28;19913;-70
2022/11/12 08:30:24;;;;;;;;;;;14.20;99.90;;;;;;4992635;28;19981;-71
2022/11/12 08:36:03;;;;;;;;;;;14.30;99.90;;;;;;4944187;28;19942;-70
2022/11/12 08:38:29;;;;;;;;;;;14.30;99.90;;;;;;5011573;28;19913;-71
2022/11/12 08:40:58;;;;;;;;;;;14.30;99.90;;;;;;5020737;28;19916;-70
2022/11/12 08:43:24;;;;;;;;;;;14.30;99.90;;;;;;5077323;28;19919;-70
2022/11/12 08:45:50;;;;;;;;;;;14.40;99.90;;;;;;5080261;28;20289;-71
2022/11/12 08:48:15;;;;;;;;;;;14.40;99.90;;;;;;5076339;28;19962;-71
2022/11/12 08:51:03;;;;;;;;;;;;;;;;;;;;;
2022/11/12 08:57:02;;;;;;;;;;;14.70;99.90;;;;;;5071116;28;20241;-71
2022/11/12 09:05:38;;;;;;;;;;;14.70;99.90;;;;;;4982815;28;19969;-71
2022/11/12 09:08:08;;;;;;;;;;;14.70;99.90;;;;;;4981461;28;19926;-71
2022/11/12 09:10:37;;;;;;;;;;;14.60;99.90;;;;;;4978833;28;19914;-71
2022/11/12 09:13:03;;;;;;;;;;;14.60;99.90;;;;;;4962780;28;20352;-71
2022/11/12 09:15:29;;;;;;;;;;;14.60;99.90;;;;;;4980922;28;20372;-71
2022/11/12 09:18:13;;;;;;;;;;;14.70;99.90;;;;;;5051953;28;19952;-71
2022/11/12 09:20:39;;;;;;;;;;;14.80;99.90;;;;;;5069726;28;19921;-71
2022/11/12 09:23:09;;;;;;;;;;;14.90;99.90;;;;;;5073554;28;19920;-71
2022/11/12 09:25:35;;;;;;;;;;;15.00;99.90;;;;;;5072913;28;19916;-71
2022/11/12 09:28:07;;;;;;;;;;;15.00;99.90;;;;;;5071735;28;19919;-71
2022/11/12 09:30:33;;;;;;;;;;;15.00;99.90;;;;;;5052291;28;19912;-71
2022/11/12 09:32:58;;;;;;;;;;;15.10;99.90;;;;;;5056421;28;20513;-70
2022/11/12 09:35:24;;;;;;;;;;;15.10;99.90;;;;;;5068405;28;19920;-70
2022/11/12 09:37:50;;;;;;;;;;;15.00;99.90;;;;;;5072996;28;19923;-70
2022/11/12 09:40:18;;;;;;;;;;;15.10;99.90;;;;;;5074240;28;19912;-71
2022/11/12 09:42:45;;;;;;;;;;;15.10;99.90;;;;;;5081183;28;19934;-71
2022/11/12 09:45:18;;;;;;;;;;;15.20;99.90;;;;;;5067871;28;19926;-70
2022/11/12 09:47:45;;;;;;;;;;;15.20;99.90;;;;;;5053919;28;19912;-71
2022/11/12 09:50:20;;;;;;;;;;;15.30;99.90;;;;;;5080389;28;19917;-70
2022/11/12 09:52:48;;;;;;;;;;;15.20;99.90;;;;;;5076043;28;19913;-70
2022/11/12 09:55:17;;;;;;;;;;;15.20;99.90;;;;;;5095874;28;19914;-71
2022/11/12 09:57:43;;;;;;;;;;;15.30;99.90;;;;;;5077876;28;19909;-70
2022/11/12 10:00:19;;;;;;;;;;;15.20;99.90;;;;;;5063586;28;19924;-70
2022/11/12 10:02:59;;;;;;;;;;;15.30;99.90;;;;;;5077304;28;19913;-70
2022/11/12 10:05:41;;;;;;;;;;;15.20;99.90;;;;;;5068577;28;19916;-70
2022/11/12 10:08:19;;;;;;;;;;;15.20;99.90;;;;;;5057818;28;20290;-71
2022/11/12 10:10:44;;;;;;;;;;;15.20;99.90;;;;;;5051911;28;19939;-71
2022/11/12 10:13:23;;;;;;;;;;;15.30;99.90;;;;;;5056171;28;20426;-71
2022/11/12 10:18:44;;;;;;;;;;;15.30;99.90;;;;;;5076389;28;19919;-71
2022/11/12 10:21:18;;;;;;;;;;;15.40;99.90;;;;;;5076662;28;19912;-71
2022/11/12 10:23:45;;;;;;;;;;;15.50;99.90;;;;;;5080098;28;19931;-71
2022/11/12 10:26:12;;;;;;;;;;;15.50;99.90;;;;;;5078696;28;19908;-71
2022/11/12 10:28:50;;;;;;;;;;;15.50;99.90;;;;;;5070912;28;20011;-71
2022/11/12 10:31:17;;;;;;;;;;;15.60;99.90;;;;;;5071457;28;19934;-71
2022/11/12 10:33:43;;;;;;;;;;;15.60;99.90;;;;;;5073975;28;20259;-71
2022/11/12 10:36:17;;;;;;;;;;;15.60;99.90;;;;;;5077920;28;21027;-71
2022/11/12 10:38:44;;;;;;;;;;;15.60;99.90;;;;;;5071238;28;19985;-71
2022/11/12 10:41:29;;;;;;;;;;;15.60;99.90;;;;;;5049242;28;19931;-73
2022/11/12 10:43:59;;;;;;;;;;;15.70;99.90;;;;;;5064270;28;19928;-70
2022/11/12 10:46:27;;;;;;;;;;;15.70;99.90;;;;;;5060277;28;20030;-71
2022/11/12 10:48:54;;;;;;;;;;;15.70;99.90;;;;;;5069861;28;19955;-71
2022/11/12 10:51:25;;;;;;;;;;;15.80;99.90;;;;;;5075698;28;19909;-71
2022/11/12 10:53:51;;;;;;;;;;;15.80;99.90;;;;;;5065371;28;19919;-71
2022/11/12 10:56:22;;;;;;;;;;;15.90;99.90;;;;;;5082635;28;19912;-71
2022/11/12 10:59:07;;;;;;;;;;;15.90;99.90;;;;;;5075811;28;19942;-71
2022/11/12 11:01:32;;;;;;;;;;;15.90;99.90;;;;;;5070157;28;19920;-71
2022/11/12 11:03:58;;;;;;;;;;;16.00;99.90;;;;;;5074063;28;19912;-71
2022/11/12 11:06:25;;;;;;;;;;;16.00;99.90;;;;;;5072320;28;19923;-71
2022/11/12 11:08:51;;;;;;;;;;;16.00;99.90;;;;;;5055156;28;19943;-71
2022/11/12 11:11:27;;;;;;;;;;;16.10;99.90;;;;;;5074130;28;20524;-71
2022/11/12 11:13:54;;;;;;;;;;;16.10;99.90;;;;;;5082416;28;19908;-71
2022/11/12 11:16:24;;;;;;;;;;;16.10;99.90;;;;;;5058941;28;19919;-71
2022/11/12 11:18:52;;;;;;;;;;;16.10;99.90;;;;;;5052997;28;19913;-71
2022/11/12 11:21:23;;;;;;;;;;;16.20;99.90;;;;;;5070078;28;19942;-71
2022/11/12 11:24:01;;;;;;;;;;;16.20;99.90;;;;;;5069614;28;19916;-71
2022/11/12 11:26:33;;;;;;;;;;;16.20;99.90;;;;;;5055644;28;19930;-71
2022/11/12 11:29:07;;;;;;;;;;;16.30;99.90;;;;;;5054074;28;19913;-71
2022/11/12 11:31:33;;;;;;;;;;;16.30;99.90;;;;;;5055892;28;20371;-71
2022/11/12 11:34:11;;;;;;;;;;;16.30;99.90;;;;;;5064314;28;19913;-71
2022/11/12 11:36:39;;;;;;;;;;;16.40;99.90;;;;;;5073321;28;20289;-71
2022/11/12 11:39:18;;;;;;;;;;;16.40;99.90;;;;;;5061310;28;19916;-71
2022/11/12 11:41:49;;;;;;;;;;;16.40;99.90;;;;;;5077903;28;20019;-71
2022/11/12 11:44:37;;;;;;;;;;;16.40;99.90;;;;;;5060778;28;19916;-71
2022/11/12 11:47:31;;;;;;;;;;;16.60;99.90;;;;;;5075953;28;19919;-71
2022/11/12 11:50:09;;;;;;;;;;;16.50;99.90;;;;;;5074438;28;19919;-71
2022/11/12 11:52:45;;;;;;;;;;;16.40;99.90;;;;;;5078139;28;19909;-71
2022/11/12 11:55:14;;;;;;;;;;;16.40;99.90;;;;;;5071620;28;19916;-72
2022/11/12 11:57:52;;;;;;;;;;;16.40;99.90;;;;;;5057787;28;19920;-72
2022/11/12 12:00:19;;;;;;;;;;;16.30;99.90;;;;;;5066771;28;19934;-71
2022/11/12 12:02:45;;;;;;;;;;;16.30;99.90;;;;;;5083686;28;19918;-70
2022/11/12 12:05:46;;;;;;;;;;;16.20;99.90;;;;;;5070570;28;20015;-73
2022/11/12 12:08:25;;;;;;;;;;;16.30;99.90;;;;;;4963113;28;19957;-73
2022/11/12 12:10:56;;;;;;;;;;;16.30;99.90;;;;;;5069318;28;19909;-73
2022/11/12 12:13:34;;;;;;;;;;;16.30;99.90;;;;;;5070795;28;20596;-73
2022/11/12 12:16:09;;;;;;;;;;;16.50;99.90;;;;;;5072042;28;19947;-72
2022/11/12 12:19:13;;;;;;;;;;;16.60;99.90;;;;;;5072886;28;20336;-71
2022/11/12 12:21:40;;;;;;;;;;;16.70;99.90;;;;;;4955149;28;19997;-72
2022/11/12 12:24:08;;;;;;;;;;;16.80;99.90;;;;;;4972330;28;19922;-72
2022/11/12 12:26:45;;;;;;;;;;;16.70;99.90;;;;;;5025143;28;20520;-73
2022/11/12 12:29:26;;;;;;;;;;;16.70;99.90;;;;;;5076953;28;19912;-72
2022/11/12 12:31:59;;;;;;;;;;;16.80;99.90;;;;;;5085240;28;19919;-75
2022/11/12 12:34:34;;;;;;;;;;;16.80;99.90;;;;;;5070761;28;19958;-72
2022/11/12 12:37:05;;;;;;;;;;;16.80;99.90;;;;;;5086594;28;19956;-71
2022/11/12 12:39:39;;;;;;;;;;;16.90;99.90;;;;;;5074239;28;20007;-72
2022/11/12 12:42:11;;;;;;;;;;;16.90;99.90;;;;;;5069282;28;19962;-71
2022/11/12 12:45:03;;;;;;;;;;;16.90;99.90;;;;;;5073352;28;19973;-71
2022/11/12 12:47:34;;;;;;;;;;;16.90;99.90;;;;;;5064438;28;20306;-71
2022/11/12 12:50:02;;;;;;;;;;;16.90;99.90;;;;;;5069973;28;19999;-71
2022/11/12 12:52:28;;;;;;;;;;;16.90;99.90;;;;;;5066441;28;19965;-71
2022/11/12 12:54:54;;;;;;;;;;;16.90;99.90;;;;;;5075692;28;20003;-75
2022/11/12 12:57:28;;;;;;;;;;;16.90;99.90;;;;;;5057510;28;19919;-70
2022/11/12 13:00:12;;;;;;;;;;;16.90;99.90;;;;;;5082410;28;19942;-72
2022/11/12 13:02:38;;;;;;;;;;;16.90;99.90;;;;;;5077436;28;19916;-71
2022/11/12 13:05:04;;;;;;;;;;;17.00;99.90;;;;;;5064572;28;19925;-71
2022/11/12 13:07:43;;;;;;;;;;;17.00;99.90;;;;;;5071424;28;19913;-75
2022/11/12 13:10:27;;;;;;;;;;;17.00;99.90;;;;;;5070427;28;20530;-71
2022/11/12 13:13:22;;;;;;;;;;;17.00;99.90;;;;;;5074120;28;19962;-71
2022/11/12 13:15:49;;;;;;;;;;;17.00;99.90;;;;;;5073562;28;19940;-71
2022/11/12 13:18:33;;;;;;;;;;;17.00;99.90;;;;;;5072035;28;19919;-72
2022/11/12 13:21:06;;;;;;;;;;;17.10;99.90;;;;;;5083251;28;20445;-72
2022/11/12 13:24:04;;;;;;;;;;;17.20;99.90;;;;;;5073140;28;19913;-72
2022/11/12 13:26:43;;;;;;;;;;;17.20;99.90;;;;;;5072442;28;19908;-72
2022/11/12 13:29:28;;;;;;;;;;;17.30;99.90;;;;;;5066053;28;19927;-72
2022/11/12 13:32:12;;;;;;;;;;;17.20;99.90;;;;;;5085235;28;19959;-72
2022/11/12 13:34:38;;;;;;;;;;;17.30;99.90;;;;;;5048688;28;20025;-72
2022/11/12 13:37:04;;;;;;;;;;;17.50;99.90;;;;;;5082957;28;20383;-72
2022/11/12 13:39:35;;;;;;;;;;;17.60;99.90;;;;;;5075004;28;19932;-72
2022/11/12 13:44:57;;;;;;;;;;;17.90;99.90;;;;;;5095271;28;19982;-72
2022/11/12 13:47:25;;;;;;;;;;;18.00;99.90;;;;;;5058183;28;19935;-72
2022/11/12 13:49:50;;;;;;;;;;;18.00;99.90;;;;;;5072978;28;19921;-72
2022/11/12 13:52:17;;;;;;;;;;;17.90;99.90;;;;;;5059249;28;20011;-72
2022/11/12 13:54:43;;;;;;;;;;;17.80;99.90;;;;;;5079330;28;19959;-74
2022/11/12 13:57:13;;;;;;;;;;;17.70;99.90;;;;;;5072258;28;19949;-73
2022/11/12 13:59:38;;;;;;;;;;;17.70;99.90;;;;;;5061335;28;19912;-73
2022/11/12 14:02:15;;;;;;;;;;;17.70;99.90;;;;;;5055865;28;20003;-72
2022/11/12 14:04:40;;;;;;;;;;;17.60;99.90;;;;;;5070667;28;19916;-72
2022/11/12 14:07:14;;;;;;;;;;;17.60;99.90;;;;;;5067236;28;20532;-73
2022/11/12 14:09:49;;;;;;;;;;;17.50;99.90;;;;;;5078441;28;19954;-73
2022/11/12 14:12:15;;;;;;;;;;;17.50;99.90;;;;;;5077065;28;19918;-72
2022/11/12 14:14:59;;;;;;;;;;;17.50;99.90;;;;;;5077389;28;19912;-74
2022/11/12 14:17:44;;;;;;;;;;;17.40;99.90;;;;;;5081838;28;19969;-72
2022/11/12 14:20:24;;;;;;;;;;;17.40;99.90;;;;;;5064996;28;19959;-72
2022/11/12 14:22:49;;;;;;;;;;;17.40;99.90;;;;;;5073791;28;19920;-75
2022/11/12 14:25:17;;;;;;;;;;;17.40;99.90;;;;;;5080277;28;20020;-73
2022/11/12 14:27:43;;;;;;;;;;;17.40;99.90;;;;;;5077984;28;20294;-71
2022/11/12 14:30:11;;;;;;;;;;;17.40;99.90;;;;;;5078360;28;19912;-75
2022/11/12 14:32:38;;;;;;;;;;;17.30;99.90;;;;;;5065376;28;19956;-73
2022/11/12 14:35:22;;;;;;;;;;;17.30;99.90;;;;;;5076147;28;19970;-72
2022/11/12 14:37:51;;;;;;;;;;;17.30;99.90;;;;;;5072805;28;19991;-72
2022/11/12 14:40:17;;;;;;;;;;;17.20;99.90;;;;;;5078691;28;19920;-72
2022/11/12 14:42:43;;;;;;;;;;;17.30;99.90;;;;;;5055319;28;20004;-72
2022/11/12 14:45:16;;;;;;;;;;;17.20;99.90;;;;;;5073026;28;19931;-72
2022/11/12 14:47:42;;;;;;;;;;;17.10;99.90;;;;;;5081858;28;20115;-72
2022/11/12 14:50:16;;;;;;;;;;;17.10;99.90;;;;;;5074555;28;19919;-72
2022/11/12 14:52:43;;;;;;;;;;;17.00;99.90;;;;;;5065948;28;19920;-72
2022/11/12 14:55:12;;;;;;;;;;;17.00;99.90;;;;;;5070918;28;20003;-71
2022/11/12 14:57:39;;;;;;;;;;;16.90;99.90;;;;;;5072789;28;20055;-71
2022/11/12 15:00:19;;;;;;;;;;;17.00;99.90;;;;;;5074998;28;20377;-72
2022/11/12 15:02:51;;;;;;;;;;;16.90;99.90;;;;;;5074989;28;19913;-71
2022/11/12 15:05:38;;;;;;;;;;;;;;;;;;;;;
2022/11/12 15:08:30;;;;;;;;;;;16.80;99.90;;;;;;5072984;28;19912;-71
2022/11/12 15:11:18;;;;;;;;;;;16.80;99.90;;;;;;5074920;28;20071;-72
2022/11/12 15:14:06;;;;;;;;;;;;;;;;;;;;;
2022/11/12 15:19:45;;;;;;;;;;;16.70;99.90;;;;;;4987092;28;19914;-72
2022/11/12 15:22:30;;;;;;;;;;;16.70;99.90;;;;;;4976498;28;19961;-71